Time;durP1;ratioP1;P1;durP2;ratioP2;P2;SDS_P1;SDS_P2;PMS_P1;PMS_P2;Temp;Humidity;BMP_temperature;BMP_pressure;BME280_temperature;BME280_humidity;BME280_pressure;Samples;Min_cycle;Max_cycle;Signal;HPM_P1;HPM_P2
2023/04/23 00:01:05;;;;;;;;;;;;;;;;;;5031816;28;20012;-61
2023/04/23 00:03:32;;;;;;;;;;;;;;;;;;5031139;28;20024;-61
2023/04/23 00:05:58;;;;;;;;;;;;;;;;;;5030806;28;20346;-61
2023/04/23 00:08:24;;;;;;;;;;;;;;;;;;5031533;28;19948;-61
2023/04/23 00:10:50;;;;;;;;;;;;;;;;;;5030980;28;20431;-61
2023/04/23 00:13:16;;;;;;;;;;;;;;;;;;5031484;28;19921;-61
2023/04/23 00:15:42;;;;;;;;;;;;;;;;;;5031809;28;19925;-61
2023/04/23 00:18:08;;;;;;;;;;;;;;;;;;5031057;28;20383;-61
2023/04/23 00:20:35;;;;;;;;;;;;;;;;;;5031280;28;19925;-61
2023/04/23 00:23:01;;;;;;;;;;;;;;;;;;5031203;28;19929;-61
2023/04/23 00:25:27;;;;;;;;;;;;;;;;;;5035726;28;19947;-61
2023/04/23 00:27:53;;;;;;;;;;;;;;;;;;5051030;28;20307;-61
2023/04/23 00:30:19;;;;;;;;;;;;;;;;;;5051114;28;19924;-61
2023/04/23 00:32:45;;;;;;;;;;;;;;;;;;5050460;28;19944;-61
2023/04/23 00:35:11;;;;;;;;;;;;;;;;;;5051050;28;20243;-61
2023/04/23 00:37:36;;;;;;;;;;;;;;;;;;5051184;28;19928;-60
2023/04/23 00:40:03;;;;;;;;;;;;;;;;;;5048994;28;19924;-61
2023/04/23 00:42:29;;;;;;;;;;;;;;;;;;5051275;28;19921;-60
2023/04/23 00:44:55;;;;;;;;;;;;;;;;;;5049260;28;19976;-60
2023/04/23 00:47:21;;;;;;;;;;;;;;;;;;5050018;28;19950;-61
2023/04/23 00:49:49;;;;;;;;;;;;;;;;;;5050618;28;20383;-60
2023/04/23 00:52:15;;;;;;;;;;;;;;;;;;5050650;28;19924;-60
2023/04/23 00:54:41;;;;;;;;;;;;;;;;;;5049804;28;19979;-61
2023/04/23 00:57:07;;;;;;;;;;;;;;;;;;5050603;28;20023;-61
2023/04/23 00:59:33;;;;;;;;;;;;;;;;;;5049334;28;19921;-61
2023/04/23 01:01:58;;;;;;;;;;;;;;;;;;5049877;28;19951;-60
2023/04/23 01:04:25;;;;;;;;;;;;;;;;;;5050717;28;19925;-60
2023/04/23 01:06:50;;;;;;;;;;;;;;;;;;5050017;28;19932;-61
2023/04/23 01:09:17;;;;;;;;;;;;;;;;;;5050095;28;19929;-60
2023/04/23 01:11:43;;;;;;;;;;;;;;;;;;5050338;28;19978;-61
2023/04/23 01:14:08;;;;;;;;;;;;;;;;;;5050246;28;19924;-60
2023/04/23 01:16:35;;;;;;;;;;;;;;;;;;5049436;28;20024;-60
2023/04/23 01:19:01;;;;;;;;;;;;;;;;;;5050311;28;19924;-61
2023/04/23 01:21:27;;;;;;;;;;;;;;;;;;5050206;28;19928;-61
2023/04/23 01:23:52;;;;;;;;;;;;;;;;;;5049390;28;20228;-61
2023/04/23 01:26:18;;;;;;;;;;;;;;;;;;5049824;28;19935;-61
2023/04/23 01:28:45;;;;;;;;;;;;;;;;;;5050163;28;19924;-60
2023/04/23 01:31:13;;;;;;;;;;;;;;;;;;5049221;28;19931;-60
2023/04/23 01:33:39;;;;;;;;;;;;;;;;;;5049738;28;19924;-60
2023/04/23 01:36:05;;;;;;;;;;;;;;;;;;5050044;28;19924;-61
2023/04/23 01:38:31;;;;;;;;;;;;;;;;;;5049188;28;20307;-61
2023/04/23 01:40:56;;;;;;;;;;;;;;;;;;5049837;28;19928;-61
2023/04/23 01:43:22;;;;;;;;;;;;;;;;;;5049857;28;19928;-61
2023/04/23 01:45:48;;;;;;;;;;;;;;;;;;5049273;28;19924;-61
2023/04/23 01:48:14;;;;;;;;;;;;;;;;;;5049886;28;19933;-61
2023/04/23 01:50:40;;;;;;;;;;;;;;;;;;5049445;28;19947;-60
2023/04/23 01:53:06;;;;;;;;;;;;;;;;;;5049037;28;19925;-61
2023/04/23 01:55:32;;;;;;;;;;;;;;;;;;5049741;28;19970;-61
2023/04/23 01:57:58;;;;;;;;;;;;;;;;;;5048371;28;20366;-60
2023/04/23 02:00:24;;;;;;;;;;;;;;;;;;5049078;28;19971;-60
2023/04/23 02:02:52;;;;;;;;;;;;;;;;;;5049773;28;20543;-60
2023/04/23 02:05:18;;;;;;;;;;;;;;;;;;5049511;28;19921;-60
2023/04/23 02:07:44;;;;;;;;;;;;;;;;;;5049259;28;19925;-60
2023/04/23 02:10:10;;;;;;;;;;;;;;;;;;5049669;28;19975;-61
2023/04/23 02:12:36;;;;;;;;;;;;;;;;;;5049660;28;19968;-60
2023/04/23 02:15:02;;;;;;;;;;;;;;;;;;5049170;28;20238;-60
2023/04/23 02:17:28;;;;;;;;;;;;;;;;;;5049523;28;19924;-61
2023/04/23 02:19:54;;;;;;;;;;;;;;;;;;5049439;28;20337;-61
2023/04/23 02:22:21;;;;;;;;;;;;;;;;;;5049347;28;19921;-62
2023/04/23 02:24:47;;;;;;;;;;;;;;;;;;5048945;28;19924;-61
2023/04/23 02:27:13;;;;;;;;;;;;;;;;;;5049005;28;20467;-61
2023/04/23 02:29:40;;;;;;;;;;;;;;;;;;5051371;28;20468;-61
2023/04/23 02:32:05;;;;;;;;;;;;;;;;;;5053017;28;20011;-61
2023/04/23 02:34:31;;;;;;;;;;;;;;;;;;5053209;28;20024;-61
2023/04/23 02:36:57;;;;;;;;;;;;;;;;;;5053375;28;20355;-61
2023/04/23 02:39:23;;;;;;;;;;;;;;;;;;5052639;28;19920;-61
2023/04/23 02:41:50;;;;;;;;;;;;;;;;;;5053025;28;19928;-61
2023/04/23 02:44:15;;;;;;;;;;;;;;;;;;5053425;28;19928;-61
2023/04/23 02:46:41;;;;;;;;;;;;;;;;;;5052513;28;19932;-61
2023/04/23 02:49:07;;;;;;;;;;;;;;;;;;5053054;28;19921;-61
2023/04/23 02:51:33;;;;;;;;;;;;;;;;;;5053086;28;19921;-61
2023/04/23 02:53:59;;;;;;;;;;;;;;;;;;5052622;28;19956;-61
2023/04/23 02:56:25;;;;;;;;;;;;;;;;;;5052745;28;19979;-61
2023/04/23 02:58:51;;;;;;;;;;;;;;;;;;5052965;28;19995;-61
2023/04/23 03:01:17;;;;;;;;;;;;;;;;;;5052239;28;19925;-61
2023/04/23 03:03:43;;;;;;;;;;;;;;;;;;5052770;28;20314;-61
2023/04/23 03:06:09;;;;;;;;;;;;;;;;;;5052637;28;19921;-61
2023/04/23 03:08:35;;;;;;;;;;;;;;;;;;5052089;28;19921;-61
2023/04/23 03:11:03;;;;;;;;;;;;;;;;;;5052542;28;20446;-61
2023/04/23 03:13:29;;;;;;;;;;;;;;;;;;5052663;28;19924;-61
2023/04/23 03:15:55;;;;;;;;;;;;;;;;;;5052074;28;20379;-61
2023/04/23 03:18:21;;;;;;;;;;;;;;;;;;5052499;28;19971;-61
2023/04/23 03:20:47;;;;;;;;;;;;;;;;;;5052367;28;19931;-61
2023/04/23 03:23:13;;;;;;;;;;;;;;;;;;5051406;28;19925;-60
2023/04/23 03:25:39;;;;;;;;;;;;;;;;;;5051042;28;20257;-61
2023/04/23 03:28:05;;;;;;;;;;;;;;;;;;5050753;28;19933;-61
2023/04/23 03:30:31;;;;;;;;;;;;;;;;;;5051727;28;19924;-61
2023/04/23 03:32:57;;;;;;;;;;;;;;;;;;5052707;28;19925;-61
2023/04/23 03:35:23;;;;;;;;;;;;;;;;;;5052038;28;20347;-61
2023/04/23 03:37:49;;;;;;;;;;;;;;;;;;5051693;28;20364;-61
2023/04/23 03:40:15;;;;;;;;;;;;;;;;;;5050878;28;19921;-61
2023/04/23 03:42:40;;;;;;;;;;;;;;;;;;5051853;28;19921;-61
2023/04/23 03:45:06;;;;;;;;;;;;;;;;;;5051558;28;19964;-61
2023/04/23 03:47:32;;;;;;;;;;;;;;;;;;5051756;28;19935;-61
2023/04/23 03:49:58;;;;;;;;;;;;;;;;;;5051749;28;20395;-61
2023/04/23 03:52:24;;;;;;;;;;;;;;;;;;5051468;28;19928;-61
2023/04/23 03:54:50;;;;;;;;;;;;;;;;;;5051893;28;19982;-61
2023/04/23 03:57:16;;;;;;;;;;;;;;;;;;5051408;28;20341;-61
2023/04/23 03:59:42;;;;;;;;;;;;;;;;;;5049897;28;19943;-61
2023/04/23 04:02:08;;;;;;;;;;;;;;;;;;5051829;28;19932;-61
2023/04/23 04:04:35;;;;;;;;;;;;;;;;;;5051755;28;20050;-60
2023/04/23 04:07:01;;;;;;;;;;;;;;;;;;5051007;28;20414;-60
2023/04/23 04:09:27;;;;;;;;;;;;;;;;;;5051613;28;20294;-60
2023/04/23 04:11:53;;;;;;;;;;;;;;;;;;5051391;28;20298;-60
2023/04/23 04:14:19;;;;;;;;;;;;;;;;;;5050905;28;20015;-61
2023/04/23 04:16:45;;;;;;;;;;;;;;;;;;5050341;28;19931;-60
2023/04/23 04:19:10;;;;;;;;;;;;;;;;;;5051415;28;19925;-60
2023/04/23 04:21:36;;;;;;;;;;;;;;;;;;5050830;28;20008;-61
2023/04/23 04:24:03;;;;;;;;;;;;;;;;;;5051085;28;19947;-61
2023/04/23 04:26:31;;;;;;;;;;;;;;;;;;5050995;28;19929;-61
2023/04/23 04:28:57;;;;;;;;;;;;;;;;;;5050744;28;20006;-61
2023/04/23 04:31:24;;;;;;;;;;;;;;;;;;5050975;28;19959;-61
2023/04/23 04:33:50;;;;;;;;;;;;;;;;;;5051065;28;20309;-61
2023/04/23 04:36:17;;;;;;;;;;;;;;;;;;5050608;28;20189;-61
2023/04/23 04:38:42;;;;;;;;;;;;;;;;;;5050752;28;20015;-61
2023/04/23 04:41:10;;;;;;;;;;;;;;;;;;5050984;28;20004;-61
2023/04/23 04:43:36;;;;;;;;;;;;;;;;;;5050426;28;19925;-60
2023/04/23 04:46:02;;;;;;;;;;;;;;;;;;5050647;28;19932;-60
2023/04/23 04:48:28;;;;;;;;;;;;;;;;;;5050568;28;20382;-60
2023/04/23 04:50:54;;;;;;;;;;;;;;;;;;5050030;28;20202;-60
2023/04/23 04:53:20;;;;;;;;;;;;;;;;;;5050261;28;19921;-60
2023/04/23 04:55:46;;;;;;;;;;;;;;;;;;5050798;28;20389;-60
2023/04/23 04:58:12;;;;;;;;;;;;;;;;;;5049880;28;20139;-61
2023/04/23 05:00:38;;;;;;;;;;;;;;;;;;5050579;28;20326;-61
2023/04/23 05:03:04;;;;;;;;;;;;;;;;;;5050546;28;20012;-61
2023/04/23 05:05:30;;;;;;;;;;;;;;;;;;5050122;28;19932;-61
2023/04/23 05:08:01;;;;;;;;;;;;;;;;;;5050288;28;19929;-61
2023/04/23 05:10:27;;;;;;;;;;;;;;;;;;5049996;28;19928;-61
2023/04/23 05:12:53;;;;;;;;;;;;;;;;;;5049788;28;20351;-61
2023/04/23 05:15:19;;;;;;;;;;;;;;;;;;5048977;28;19960;-61
2023/04/23 05:17:45;;;;;;;;;;;;;;;;;;5049995;28;19928;-61
2023/04/23 05:20:11;;;;;;;;;;;;;;;;;;5049745;28;19925;-61
2023/04/23 05:22:37;;;;;;;;;;;;;;;;;;5050033;28;19921;-61
2023/04/23 05:25:03;;;;;;;;;;;;;;;;;;5050010;28;19964;-60
2023/04/23 05:27:29;;;;;;;;;;;;;;;;;;5049529;28;19929;-61
2023/04/23 05:29:55;;;;;;;;;;;;;;;;;;5050003;28;20058;-61
2023/04/23 05:32:20;;;;;;;;;;;;;;;;;;5050132;28;19968;-61
2023/04/23 05:34:46;;;;;;;;;;;;;;;;;;5050272;28;20054;-61
2023/04/23 05:37:12;;;;;;;;;;;;;;;;;;5049233;28;19931;-60
2023/04/23 05:39:38;;;;;;;;;;;;;;;;;;5050063;28;19921;-61
2023/04/23 05:42:04;;;;;;;;;;;;;;;;;;5049941;28;19921;-61
2023/04/23 05:44:30;;;;;;;;;;;;;;;;;;5049372;28;19964;-61
2023/04/23 05:46:56;;;;;;;;;;;;;;;;;;5049707;28;19925;-61
2023/04/23 05:49:22;;;;;;;;;;;;;;;;;;5049693;28;19924;-61
2023/04/23 05:51:48;;;;;;;;;;;;;;;;;;5049518;28;20391;-61
2023/04/23 05:54:14;;;;;;;;;;;;;;;;;;5049960;28;20011;-61
2023/04/23 05:56:39;;;;;;;;;;;;;;;;;;5049802;28;20556;-61
2023/04/23 05:59:05;;;;;;;;;;;;;;;;;;5049519;28;19928;-61
2023/04/23 06:01:31;;;;;;;;;;;;;;;;;;5049464;28;19958;-61
2023/04/23 06:03:57;;;;;;;;;;;;;;;;;;5048853;28;20310;-61
2023/04/23 06:06:23;;;;;;;;;;;;;;;;;;5047705;28;19928;-61
2023/04/23 06:08:50;;;;;;;;;;;;;;;;;;5049457;28;20002;-61
2023/04/23 06:11:16;;;;;;;;;;;;;;;;;;5049513;28;19924;-61
2023/04/23 06:13:42;;;;;;;;;;;;;;;;;;5048854;28;20290;-61
2023/04/23 06:16:08;;;;;;;;;;;;;;;;;;5049393;28;20446;-61
2023/04/23 06:18:34;;;;;;;;;;;;;;;;;;5049205;28;20011;-61
2023/04/23 06:21:03;;;;;;;;;;;;;;;;;;5049161;28;19963;-61
2023/04/23 06:23:29;;;;;;;;;;;;;;;;;;5049215;28;19925;-61
2023/04/23 06:25:55;;;;;;;;;;;;;;;;;;5049335;28;19920;-61
2023/04/23 06:28:21;;;;;;;;;;;;;;;;;;5048836;28;19925;-61
2023/04/23 06:30:47;;;;;;;;;;;;;;;;;;5049404;28;19939;-61
2023/04/23 06:33:13;;;;;;;;;;;;;;;;;;5049540;28;19924;-61
2023/04/23 06:35:39;;;;;;;;;;;;;;;;;;5049296;28;20268;-61
2023/04/23 06:38:05;;;;;;;;;;;;;;;;;;5049236;28;19928;-61
2023/04/23 06:40:31;;;;;;;;;;;;;;;;;;5049347;28;19932;-60
2023/04/23 06:42:57;;;;;;;;;;;;;;;;;;5048612;28;19921;-60
2023/04/23 06:45:23;;;;;;;;;;;;;;;;;;5049231;28;20279;-61
2023/04/23 06:47:49;;;;;;;;;;;;;;;;;;5049130;28;19940;-60
2023/04/23 06:50:15;;;;;;;;;;;;;;;;;;5048998;28;19962;-61
2023/04/23 06:52:41;;;;;;;;;;;;;;;;;;5048265;28;19924;-61
2023/04/23 06:55:07;;;;;;;;;;;;;;;;;;5049307;28;19995;-61
2023/04/23 06:57:33;;;;;;;;;;;;;;;;;;5048433;28;19975;-61
2023/04/23 06:59:59;;;;;;;;;;;;;;;;;;5047611;28;19927;-61
2023/04/23 07:02:25;;;;;;;;;;;;;;;;;;5048883;28;19929;-61
2023/04/23 07:04:51;;;;;;;;;;;;;;;;;;5048358;28;20023;-61
2023/04/23 07:07:16;;;;;;;;;;;;;;;;;;5049000;28;20015;-61
2023/04/23 07:09:42;;;;;;;;;;;;;;;;;;5048858;28;20264;-61
2023/04/23 07:12:08;;;;;;;;;;;;;;;;;;5048513;28;19925;-61
2023/04/23 07:14:34;;;;;;;;;;;;;;;;;;5048025;28;19994;-61
2023/04/23 07:17:00;;;;;;;;;;;;;;;;;;5052996;28;20307;-61
2023/04/23 07:19:26;;;;;;;;;;;;;;;;;;5052140;28;19971;-61
2023/04/23 07:21:52;;;;;;;;;;;;;;;;;;5052540;28;19928;-61
2023/04/23 07:24:18;;;;;;;;;;;;;;;;;;5052134;28;19925;-61
2023/04/23 07:26:44;;;;;;;;;;;;;;;;;;5051448;28;19931;-62
2023/04/23 07:29:10;;;;;;;;;;;;;;;;;;5052416;28;20051;-62
2023/04/23 07:31:36;;;;;;;;;;;;;;;;;;5052518;28;20023;-62
2023/04/23 07:34:02;;;;;;;;;;;;;;;;;;5052143;28;20015;-62
2023/04/23 07:36:28;;;;;;;;;;;;;;;;;;5052423;28;20321;-62
2023/04/23 07:38:54;;;;;;;;;;;;;;;;;;5052602;28;19968;-61
2023/04/23 07:41:20;;;;;;;;;;;;;;;;;;5051539;28;19925;-62
2023/04/23 07:43:46;;;;;;;;;;;;;;;;;;5052288;28;19925;-62
2023/04/23 07:46:11;;;;;;;;;;;;;;;;;;5052107;28;20295;-62
2023/04/23 07:48:37;;;;;;;;;;;;;;;;;;5051379;28;20283;-62
2023/04/23 07:51:05;;;;;;;;;;;;;;;;;;5052436;28;19921;-62
2023/04/23 07:53:31;;;;;;;;;;;;;;;;;;5050924;28;20011;-62
2023/04/23 07:55:57;;;;;;;;;;;;;;;;;;5051818;28;20020;-62
2023/04/23 07:58:22;;;;;;;;;;;;;;;;;;5050661;28;19943;-62
2023/04/23 08:00:48;;;;;;;;;;;;;;;;;;5052044;28;19920;-62
2023/04/23 08:03:14;;;;;;;;;;;;;;;;;;5051598;28;20303;-62
2023/04/23 08:05:40;;;;;;;;;;;;;;;;;;5051583;28;19925;-61
2023/04/23 08:08:07;;;;;;;;;;;;;;;;;;5052058;28;19935;-62
2023/04/23 08:10:33;;;;;;;;;;;;;;;;;;5051239;28;19924;-61
2023/04/23 08:12:58;;;;;;;;;;;;;;;;;;5052050;28;19925;-62
2023/04/23 08:15:24;;;;;;;;;;;;;;;;;;5052009;28;20390;-62
2023/04/23 08:17:50;;;;;;;;;;;;;;;;;;5051554;28;19966;-62
2023/04/23 08:20:16;;;;;;;;;;;;;;;;;;5051616;28;19931;-62
2023/04/23 08:22:42;;;;;;;;;;;;;;;;;;5051820;28;19935;-62
2023/04/23 08:25:08;;;;;;;;;;;;;;;;;;5051052;28;19925;-62
2023/04/23 08:27:34;;;;;;;;;;;;;;;;;;5050972;28;19925;-62
2023/04/23 08:30:00;;;;;;;;;;;;;;;;;;5052051;28;19931;-62
2023/04/23 08:32:26;;;;;;;;;;;;;;;;;;5051957;28;20019;-62
2023/04/23 08:34:52;;;;;;;;;;;;;;;;;;5051359;28;19947;-62
2023/04/23 08:37:18;;;;;;;;;;;;;;;;;;5051853;28;19974;-61
2023/04/23 08:39:44;;;;;;;;;;;;;;;;;;5051980;28;20299;-62
2023/04/23 08:42:10;;;;;;;;;;;;;;;;;;5051399;28;19925;-62
2023/04/23 08:44:36;;;;;;;;;;;;;;;;;;5051893;28;19920;-62
2023/04/23 08:47:02;;;;;;;;;;;;;;;;;;5051601;28;20302;-62
2023/04/23 08:49:28;;;;;;;;;;;;;;;;;;5051276;28;19925;-62
2023/04/23 08:51:54;;;;;;;;;;;;;;;;;;5051477;28;19921;-62
2023/04/23 08:54:20;;;;;;;;;;;;;;;;;;5051704;28;20290;-62
2023/04/23 08:56:46;;;;;;;;;;;;;;;;;;5051357;28;19932;-62
2023/04/23 08:59:12;;;;;;;;;;;;;;;;;;5051876;28;19925;-62
2023/04/23 09:01:38;;;;;;;;;;;;;;;;;;5051886;28;19920;-62
2023/04/23 09:04:03;;;;;;;;;;;;;;;;;;5049735;28;20275;-62
2023/04/23 09:06:31;;;;;;;;;;;;;;;;;;5051821;28;19932;-62
2023/04/23 09:08:57;;;;;;;;;;;;;;;;;;5051562;28;19925;-62
2023/04/23 09:11:23;;;;;;;;;;;;;;;;;;5050815;28;20264;-62
2023/04/23 09:13:48;;;;;;;;;;;;;;;;;;5051231;28;19920;-62
2023/04/23 09:16:14;;;;;;;;;;;;;;;;;;5051376;28;19924;-62
2023/04/23 09:18:40;;;;;;;;;;;;;;;;;;5050375;28;19932;-62
2023/04/23 09:21:06;;;;;;;;;;;;;;;;;;5051016;28;20073;-62
2023/04/23 09:23:33;;;;;;;;;;;;;;;;;;5050386;28;19925;-62
2023/04/23 09:25:59;;;;;;;;;;;;;;;;;;5049959;28;19925;-62
2023/04/23 09:28:25;;;;;;;;;;;;;;;;;;5050564;28;20371;-62
2023/04/23 09:30:51;;;;;;;;;;;;;;;;;;5050316;28;19928;-62
2023/04/23 09:33:16;;;;;;;;;;;;;;;;;;5049856;28;20550;-62
2023/04/23 09:35:42;;;;;;;;;;;;;;;;;;5050051;28;19927;-62
2023/04/23 09:38:09;;;;;;;;;;;;;;;;;;5050108;28;19921;-62
2023/04/23 09:40:36;;;;;;;;;;;;;;;;;;5049433;28;19925;-62
2023/04/23 09:43:02;;;;;;;;;;;;;;;;;;5049871;28;19932;-62
2023/04/23 09:45:28;;;;;;;;;;;;;;;;;;5049720;28;19921;-62
2023/04/23 09:47:54;;;;;;;;;;;;;;;;;;5049234;28;20023;-62
2023/04/23 09:50:20;;;;;;;;;;;;;;;;;;5049576;28;20395;-62
2023/04/23 09:52:46;;;;;;;;;;;;;;;;;;5049766;28;20020;-62
2023/04/23 09:55:12;;;;;;;;;;;;;;;;;;5048841;28;20413;-62
2023/04/23 09:57:38;;;;;;;;;;;;;;;;;;5049657;28;19925;-62
2023/04/23 10:00:04;;;;;;;;;;;;;;;;;;5048465;28;20295;-62
2023/04/23 10:02:32;;;;;;;;;;;;;;;;;;5049106;28;19987;-62
2023/04/23 10:04:58;;;;;;;;;;;;;;;;;;5049330;28;19936;-62
2023/04/23 10:07:24;;;;;;;;;;;;;;;;;;5049871;28;19928;-62
2023/04/23 10:09:50;;;;;;;;;;;;;;;;;;5048997;28;20155;-62
2023/04/23 10:12:16;;;;;;;;;;;;;;;;;;5049297;28;20007;-61
2023/04/23 10:14:42;;;;;;;;;;;;;;;;;;5049686;28;20460;-62
2023/04/23 10:17:08;;;;;;;;;;;;;;;;;;5049207;28;19924;-62
2023/04/23 10:19:34;;;;;;;;;;;;;;;;;;5049314;28;20152;-62
2023/04/23 10:22:04;;;;;;;;;;;;;;;;;;5049496;28;19929;-62
2023/04/23 10:24:30;;;;;;;;;;;;;;;;;;5048633;28;19929;-62
2023/04/23 10:26:56;;;;;;;;;;;;;;;;;;5049226;28;19935;-62
2023/04/23 10:29:22;;;;;;;;;;;;;;;;;;5049556;28;19924;-62
2023/04/23 10:31:48;;;;;;;;;;;;;;;;;;5048891;28;19995;-62
2023/04/23 10:34:14;;;;;;;;;;;;;;;;;;5049332;28;19925;-62
2023/04/23 10:36:40;;;;;;;;;;;;;;;;;;5049239;28;19971;-62
2023/04/23 10:39:06;;;;;;;;;;;;;;;;;;5048439;28;19924;-62
2023/04/23 10:41:32;;;;;;;;;;;;;;;;;;5049364;28;19932;-62
2023/04/23 10:43:58;;;;;;;;;;;;;;;;;;5049433;28;19920;-62
2023/04/23 10:46:24;;;;;;;;;;;;;;;;;;5048333;28;19983;-62
2023/04/23 10:48:50;;;;;;;;;;;;;;;;;;5049125;28;19925;-62
2023/04/23 10:51:16;;;;;;;;;;;;;;;;;;5050441;28;19928;-62
2023/04/23 10:53:42;;;;;;;;;;;;;;;;;;5052449;28;19928;-62
2023/04/23 10:56:08;;;;;;;;;;;;;;;;;;5053129;28;19960;-62
2023/04/23 10:58:34;;;;;;;;;;;;;;;;;;5052834;28;19924;-62
2023/04/23 11:01:01;;;;;;;;;;;;;;;;;;5052094;28;19990;-63
2023/04/23 11:03:26;;;;;;;;;;;;;;;;;;5052731;28;19975;-62
2023/04/23 11:05:52;;;;;;;;;;;;;;;;;;5052786;28;19975;-62
2023/04/23 11:08:18;;;;;;;;;;;;;;;;;;5050404;28;19933;-62
2023/04/23 11:10:44;;;;;;;;;;;;;;;;;;5052541;28;19927;-62
2023/04/23 11:13:10;;;;;;;;;;;;;;;;;;5052720;28;19924;-62
2023/04/23 11:15:37;;;;;;;;;;;;;;;;;;5052109;28;19931;-62
2023/04/23 11:18:03;;;;;;;;;;;;;;;;;;5052489;28;20012;-62
2023/04/23 11:20:28;;;;;;;;;;;;;;;;;;5051300;28;20069;-62
2023/04/23 11:22:54;;;;;;;;;;;;;;;;;;5051749;28;19936;-62
2023/04/23 11:25:20;;;;;;;;;;;;;;;;;;5052775;28;20390;-62
2023/04/23 11:27:46;;;;;;;;;;;;;;;;;;5052298;28;20031;-62
2023/04/23 11:30:12;;;;;;;;;;;;;;;;;;5051878;28;19925;-63
2023/04/23 11:32:39;;;;;;;;;;;;;;;;;;5052239;28;19943;-63
2023/04/23 11:35:05;;;;;;;;;;;;;;;;;;5052019;28;20021;-62
2023/04/23 11:37:32;;;;;;;;;;;;;;;;;;5051632;28;20042;-62
2023/04/23 11:39:58;;;;;;;;;;;;;;;;;;5052148;28;20429;-62
2023/04/23 11:42:24;;;;;;;;;;;;;;;;;;5050515;28;19924;-62
2023/04/23 11:44:50;;;;;;;;;;;;;;;;;;5051934;28;19925;-63
2023/04/23 11:47:17;;;;;;;;;;;;;;;;;;5051463;28;19994;-62
2023/04/23 11:49:43;;;;;;;;;;;;;;;;;;5051795;28;20375;-62
2023/04/23 11:52:09;;;;;;;;;;;;;;;;;;5051854;28;20015;-62
2023/04/23 11:54:35;;;;;;;;;;;;;;;;;;5051361;28;19978;-62
2023/04/23 11:57:01;;;;;;;;;;;;;;;;;;5050173;28;19921;-63
2023/04/23 11:59:27;;;;;;;;;;;;;;;;;;5051774;28;19928;-63
2023/04/23 12:01:53;;;;;;;;;;;;;;;;;;5049960;28;19947;-63
2023/04/23 12:04:19;;;;;;;;;;;;;;;;;;5051780;28;20019;-62
2023/04/23 12:06:45;;;;;;;;;;;;;;;;;;5051453;28;20301;-63
2023/04/23 12:09:11;;;;;;;;;;;;;;;;;;5050993;28;19928;-63
2023/04/23 12:11:37;;;;;;;;;;;;;;;;;;5051480;28;19920;-63
2023/04/23 12:14:03;;;;;;;;;;;;;;;;;;5051548;28;20175;-63
2023/04/23 12:16:29;;;;;;;;;;;;;;;;;;5049425;28;20342;-63
2023/04/23 12:18:55;;;;;;;;;;;;;;;;;;5051788;28;19928;-63
2023/04/23 12:21:21;;;;;;;;;;;;;;;;;;5050961;28;20282;-63
2023/04/23 12:23:47;;;;;;;;;;;;;;;;;;5051422;28;19932;-63
2023/04/23 12:26:13;;;;;;;;;;;;;;;;;;5051574;28;20341;-63
2023/04/23 12:28:39;;;;;;;;;;;;;;;;;;5051754;28;19929;-63
2023/04/23 12:31:06;;;;;;;;;;;;;;;;;;5051570;28;20310;-63
2023/04/23 12:33:32;;;;;;;;;;;;;;;;;;5052567;28;19935;-63
2023/04/23 12:35:59;;;;;;;;;;;;;;;;;;5051665;28;20290;-63
2023/04/23 12:38:25;;;;;;;;;;;;;;;;;;5051013;28;19924;-63
2023/04/23 12:40:51;;;;;;;;;;;;;;;;;;5051350;28;19944;-63
2023/04/23 12:43:17;;;;;;;;;;;;;;;;;;5051384;28;19925;-63
2023/04/23 12:45:44;;;;;;;;;;;;;;;;;;5050880;28;20413;-63
2023/04/23 12:48:10;;;;;;;;;;;;;;;;;;5051236;28;20479;-62
2023/04/23 12:50:36;;;;;;;;;;;;;;;;;;5049652;28;20383;-63
2023/04/23 12:53:02;;;;;;;;;;;;;;;;;;5050219;28;19924;-63
2023/04/23 12:55:28;;;;;;;;;;;;;;;;;;5050877;28;20039;-63
2023/04/23 12:57:54;;;;;;;;;;;;;;;;;;5050665;28;20103;-63
2023/04/23 13:00:20;;;;;;;;;;;;;;;;;;5049799;28;19925;-63
2023/04/23 13:02:46;;;;;;;;;;;;;;;;;;5050535;28;20345;-62
2023/04/23 13:05:12;;;;;;;;;;;;;;;;;;5050460;28;19925;-63
2023/04/23 13:07:38;;;;;;;;;;;;;;;;;;5049852;28;19925;-63
2023/04/23 13:10:04;;;;;;;;;;;;;;;;;;5050291;28;20414;-63
2023/04/23 13:12:30;;;;;;;;;;;;;;;;;;5050430;28;19925;-63
2023/04/23 13:14:56;;;;;;;;;;;;;;;;;;5050590;28;19927;-63
2023/04/23 13:17:24;;;;;;;;;;;;;;;;;;5050693;28;19933;-62
2023/04/23 13:19:50;;;;;;;;;;;;;;;;;;5049721;28;19921;-63
2023/04/23 13:22:16;;;;;;;;;;;;;;;;;;5050253;28;19970;-63
2023/04/23 13:24:41;;;;;;;;;;;;;;;;;;5050634;28;19968;-63
2023/04/23 13:27:07;;;;;;;;;;;;;;;;;;5050448;28;20280;-63
2023/04/23 13:29:33;;;;;;;;;;;;;;;;;;5050153;28;19921;-63
2023/04/23 13:31:59;;;;;;;;;;;;;;;;;;5050961;28;19925;-63
2023/04/23 13:34:25;;;;;;;;;;;;;;;;;;5050935;28;19928;-63
2023/04/23 13:36:51;;;;;;;;;;;;;;;;;;5050344;28;19928;-63
2023/04/23 13:39:19;;;;;;;;;;;;;;;;;;5050727;28;19925;-63
2023/04/23 13:41:44;;;;;;;;;;;;;;;;;;5050741;28;20345;-63
2023/04/23 13:44:12;;;;;;;;;;;;;;;;;;5048663;28;20023;-63
2023/04/23 13:46:39;;;;;;;;;;;;;;;;;;5050864;28;20468;-63
2023/04/23 13:49:04;;;;;;;;;;;;;;;;;;5050348;28;20007;-63
2023/04/23 13:51:30;;;;;;;;;;;;;;;;;;5049681;28;20043;-63
2023/04/23 13:53:58;;;;;;;;;;;;;;;;;;5050345;28;19928;-63
2023/04/23 13:56:23;;;;;;;;;;;;;;;;;;5050351;28;20451;-63
2023/04/23 13:58:51;;;;;;;;;;;;;;;;;;5050324;28;19925;-63
2023/04/23 14:01:17;;;;;;;;;;;;;;;;;;5048920;28;19920;-63
2023/04/23 14:03:43;;;;;;;;;;;;;;;;;;5050567;28;20393;-63
2023/04/23 14:06:09;;;;;;;;;;;;;;;;;;5050088;28;19920;-63
2023/04/23 14:08:37;;;;;;;;;;;;;;;;;;5050290;28;19974;-63
2023/04/23 14:11:03;;;;;;;;;;;;;;;;;;5051000;28;19975;-63
2023/04/23 14:13:28;;;;;;;;;;;;;;;;;;5050002;28;20321;-63
2023/04/23 14:15:54;;;;;;;;;;;;;;;;;;5050535;28;19921;-63
2023/04/23 14:18:20;;;;;;;;;;;;;;;;;;5050468;28;19924;-63
2023/04/23 14:20:46;;;;;;;;;;;;;;;;;;5049797;28;20365;-63
2023/04/23 14:23:12;;;;;;;;;;;;;;;;;;5049680;28;19933;-63
2023/04/23 14:25:38;;;;;;;;;;;;;;;;;;5051489;28;19944;-63
2023/04/23 14:28:04;;;;;;;;;;;;;;;;;;5052631;28;20015;-63
2023/04/23 14:30:31;;;;;;;;;;;;;;;;;;5053216;28;19931;-63
2023/04/23 14:32:57;;;;;;;;;;;;;;;;;;5051824;28;19925;-63
2023/04/23 14:35:24;;;;;;;;;;;;;;;;;;5052872;28;19925;-63
2023/04/23 14:37:50;;;;;;;;;;;;;;;;;;5052926;28;19925;-63
2023/04/23 14:40:18;;;;;;;;;;;;;;;;;;5053031;28;19970;-63
2023/04/23 14:42:44;;;;;;;;;;;;;;;;;;5051583;28;20390;-63
2023/04/23 14:45:10;;;;;;;;;;;;;;;;;;5053374;28;20403;-63
2023/04/23 14:47:36;;;;;;;;;;;;;;;;;;5053172;28;19925;-63
2023/04/23 14:50:02;;;;;;;;;;;;;;;;;;5052855;28;19958;-63
2023/04/23 14:52:28;;;;;;;;;;;;;;;;;;5053108;28;19960;-63
2023/04/23 14:54:54;;;;;;;;;;;;;;;;;;5053396;28;19925;-63
2023/04/23 14:57:20;;;;;;;;;;;;;;;;;;5053113;28;19920;-63
2023/04/23 14:59:46;;;;;;;;;;;;;;;;;;5053336;28;20327;-63
2023/04/23 15:02:12;;;;;;;;;;;;;;;;;;5053784;28;19928;-63
2023/04/23 15:04:38;;;;;;;;;;;;;;;;;;5053907;28;19931;-63
2023/04/23 15:07:04;;;;;;;;;;;;;;;;;;5052916;28;20346;-63
2023/04/23 15:09:30;;;;;;;;;;;;;;;;;;5053861;28;19975;-63
2023/04/23 15:11:56;;;;;;;;;;;;;;;;;;5053830;28;19925;-63
2023/04/23 15:14:22;;;;;;;;;;;;;;;;;;5052928;28;19932;-63
2023/04/23 15:16:48;;;;;;;;;;;;;;;;;;5053442;28;20276;-63
2023/04/23 15:19:16;;;;;;;;;;;;;;;;;;5053551;28;19921;-63
2023/04/23 15:21:42;;;;;;;;;;;;;;;;;;5052912;28;20443;-63
2023/04/23 15:24:08;;;;;;;;;;;;;;;;;;5053211;28;19935;-63
2023/04/23 15:26:34;;;;;;;;;;;;;;;;;;5052936;28;20007;-63
2023/04/23 15:28:59;;;;;;;;;;;;;;;;;;5052594;28;20448;-63
2023/04/23 15:31:25;;;;;;;;;;;;;;;;;;5053071;28;19924;-63
2023/04/23 15:33:51;;;;;;;;;;;;;;;;;;5053011;28;20047;-63
2023/04/23 15:36:17;;;;;;;;;;;;;;;;;;5052043;28;19999;-63
2023/04/23 15:38:44;;;;;;;;;;;;;;;;;;5053671;28;19931;-63
2023/04/23 15:41:11;;;;;;;;;;;;;;;;;;5052905;28;20291;-63
2023/04/23 15:43:36;;;;;;;;;;;;;;;;;;5052591;28;19935;-63
2023/04/23 15:46:02;;;;;;;;;;;;;;;;;;5052691;28;19925;-63
2023/04/23 15:48:28;;;;;;;;;;;;;;;;;;5053237;28;20442;-63
2023/04/23 15:50:54;;;;;;;;;;;;;;;;;;5052605;28;20070;-63
2023/04/23 15:53:21;;;;;;;;;;;;;;;;;;5052977;28;19924;-63
2023/04/23 15:55:47;;;;;;;;;;;;;;;;;;5051430;28;20025;-63
2023/04/23 15:58:13;;;;;;;;;;;;;;;;;;5051883;28;20003;-63
2023/04/23 16:00:39;;;;;;;;;;;;;;;;;;5052571;28;19924;-63
2023/04/23 16:03:06;;;;;;;;;;;;;;;;;;5052781;28;20290;-63
2023/04/23 16:05:32;;;;;;;;;;;;;;;;;;5052540;28;19925;-63
2023/04/23 16:07:58;;;;;;;;;;;;;;;;;;5052626;28;19924;-63
2023/04/23 16:10:25;;;;;;;;;;;;;;;;;;5052423;28;19928;-63
2023/04/23 16:12:53;;;;;;;;;;;;;;;;;;5051922;28;19925;-62
2023/04/23 16:15:19;;;;;;;;;;;;;;;;;;5051840;28;19924;-63
2023/04/23 16:17:45;;;;;;;;;;;;;;;;;;5050620;28;19931;-63
2023/04/23 16:20:11;;;;;;;;;;;;;;;;;;5051747;28;19960;-63
2023/04/23 16:22:37;;;;;;;;;;;;;;;;;;5051685;28;19979;-63
2023/04/23 16:25:03;;;;;;;;;;;;;;;;;;5050166;28;19924;-63
2023/04/23 16:27:29;;;;;;;;;;;;;;;;;;5083075;28;19925;-62
2023/04/23 16:29:55;;;;;;;;;;;;;;;;;;5051539;28;19921;-63
2023/04/23 16:32:20;;;;;;;;;;;;;;;;;;5051760;28;19920;-62
2023/04/23 16:34:46;;;;;;;;;;;;;;;;;;5050940;28;19921;-63
2023/04/23 16:37:14;;;;;;;;;;;;;;;;;;5051474;28;20066;-63